Time;durP1;ratioP1;P1;durP2;ratioP2;P2;SDS_P1;SDS_P2;PMS_P1;PMS_P2;Temp;Humidity;BMP_temperature;BMP_pressure;BME280_temperature;BME280_humidity;BME280_pressure;Samples;Min_cycle;Max_cycle;Signal;HPM_P1;HPM_P2
2023/09/12 00:00:54;;;;;;;11.50;9.52;;;17.80;99.90;;;18.65;93.79;97617.19;10310889;28;20239;-76
2023/09/12 00:06:01;;;;;;;13.13;10.32;;;17.80;99.90;;;18.51;94.81;97609.13;10309102;28;20293;-77
2023/09/12 00:11:10;;;;;;;11.73;10.52;;;17.70;99.90;;;18.44;94.72;97599.50;10315932;28;20215;-77
2023/09/12 00:16:13;;;;;;;12.27;10.88;;;17.70;99.90;;;18.34;95.48;97593.25;10311784;28;20887;-76
2023/09/12 00:21:18;;;;;;;12.77;10.60;;;17.60;99.90;;;18.45;95.39;97589.16;10314282;28;20302;-76
2023/09/12 00:26:21;;;;;;;11.90;9.98;;;17.70;99.90;;;18.45;95.46;97578.81;10310162;28;20249;-76
2023/09/12 00:31:24;;;;;;;11.90;10.57;;;17.60;99.90;;;18.51;94.42;97572.00;10313188;28;20242;-77
2023/09/12 00:36:29;;;;;;;12.98;10.10;;;17.70;99.90;;;18.41;94.63;97574.41;10307695;28;20329;-76
2023/09/12 00:41:32;;;;;;;13.32;10.48;;;17.60;99.90;;;18.26;94.93;97571.50;10310940;28;20230;-77
2023/09/12 00:46:36;;;;;;;11.93;10.70;;;17.40;99.90;;;18.34;94.52;97571.66;10311907;28;20285;-76
2023/09/12 00:51:43;;;;;;;11.13;9.80;;;17.50;99.90;;;18.24;94.95;97574.03;10309655;28;20378;-76
2023/09/12 00:56:47;;;;;;;12.20;10.90;;;17.40;99.90;;;18.20;95.52;97573.97;10307301;28;20769;-76
2023/09/12 01:01:52;;;;;;;12.32;10.40;;;17.30;99.90;;;18.18;94.66;97571.31;10309714;28;20246;-75
2023/09/12 01:06:57;;;;;;;11.77;10.57;;;17.30;99.90;;;18.15;95.54;97568.66;10309523;28;20242;-76
2023/09/12 01:12:02;;;;;;;11.63;10.20;;;17.30;99.90;;;18.17;94.78;97577.34;10311762;28;20211;-76
2023/09/12 01:17:05;;;;;;;14.23;10.30;;;17.30;99.90;;;18.13;95.25;97585.00;10308607;28;20814;-77
2023/09/12 01:22:30;;;;;;;11.73;10.50;;;17.30;99.90;;;18.10;95.41;97587.50;10306353;28;20412;-76
2023/09/12 01:27:37;;;;;;;11.98;10.90;;;17.20;99.90;;;18.06;95.31;97588.28;10311666;28;20239;-76
2023/09/12 01:32:41;;;;;;;11.32;9.80;;;17.20;99.90;;;18.12;94.84;97588.44;10312202;28;20228;-76
2023/09/12 01:37:44;;;;;;;10.90;9.77;;;17.20;99.90;;;18.10;94.24;97590.09;10312555;28;20230;-76
2023/09/12 01:42:50;;;;;;;10.45;9.40;;;17.20;99.90;;;17.85;95.15;97583.47;10306937;28;20259;-77
2023/09/12 01:47:54;;;;;;;10.95;8.95;;;17.00;99.90;;;17.65;95.45;97585.53;10310244;28;20286;-76
2023/09/12 01:52:58;;;;;;;12.98;9.75;;;16.70;99.90;;;17.69;94.74;97577.03;10309351;28;20306;-76
2023/09/12 01:58:03;;;;;;;10.18;9.18;;;16.80;99.90;;;17.64;95.61;97584.66;10305241;28;20223;-76
2023/09/12 02:03:07;;;;;;;11.73;9.55;;;16.70;99.90;;;17.58;96.04;97591.41;10307130;28;20298;-77
2023/09/12 02:08:10;;;;;;;12.23;10.15;;;16.70;99.90;;;17.45;96.76;97593.66;10308549;28;20319;-76
2023/09/12 02:13:15;;;;;;;11.13;9.77;;;16.60;99.90;;;17.37;96.91;97591.69;10308026;28;20223;-77
2023/09/12 02:18:18;;;;;;;11.23;10.00;;;16.50;99.90;;;17.41;97.04;97586.66;10307679;28;20313;-76
2023/09/12 02:23:21;;;;;;;11.43;10.27;;;16.60;99.90;;;17.47;96.73;97589.41;10311564;28;20221;-77
2023/09/12 02:28:26;;;;;;;11.32;10.15;;;16.60;99.90;;;17.38;96.80;97583.13;10307683;28;20297;-77
2023/09/12 02:33:29;;;;;;;10.93;9.93;;;16.60;99.90;;;17.38;97.33;97591.75;10310808;28;20369;-76
2023/09/12 02:38:33;;;;;;;12.38;9.25;;;16.60;99.90;;;17.46;97.54;97592.84;10310329;28;20723;-77
2023/09/12 02:43:38;;;;;;;13.73;10.38;;;16.60;99.90;;;17.29;97.09;97583.78;10308144;28;20284;-77
2023/09/12 02:48:41;;;;;;;11.88;10.07;;;16.50;99.90;;;17.23;97.36;97578.47;10319354;28;20249;-77
2023/09/12 02:53:45;;;;;;;11.30;10.07;;;16.50;99.90;;;17.25;97.10;97569.88;10319478;28;20254;-77
2023/09/12 02:58:50;;;;;;;11.20;10.20;;;16.50;99.90;;;17.21;97.24;97562.03;10315419;28;20227;-77
2023/09/12 03:03:53;;;;;;;13.15;10.70;;;16.40;99.90;;;17.23;97.74;97563.81;10316774;28;20309;-76
2023/09/12 03:08:57;;;;;;;12.38;10.70;;;16.40;99.90;;;17.10;97.71;97560.03;10315710;28;20230;-78
2023/09/12 03:14:01;;;;;;;13.73;10.85;;;16.30;99.90;;;16.97;99.37;97560.56;10316591;28;20231;-76
2023/09/12 03:19:05;;;;;;;13.32;10.23;;;16.30;99.90;;;16.85;98.90;97557.63;10310089;28;20223;-76
2023/09/12 03:24:08;;;;;;;11.70;10.57;;;16.20;99.90;;;16.79;99.57;97560.03;10311525;28;20337;-76
2023/09/12 03:29:13;;;;;;;14.70;11.48;;;16.10;99.90;;;16.67;100.00;97557.94;10305855;28;20231;-77
2023/09/12 03:34:16;;;;;;;13.68;11.60;;;16.00;99.90;;;16.60;100.00;97553.47;10311254;28;20270;-76
2023/09/12 03:39:19;;;;;;;14.90;11.73;;;15.90;99.90;;;16.70;100.00;97549.44;10299284;28;20227;-78
2023/09/12 03:44:24;;;;;;;13.35;10.88;;;16.00;99.90;;;16.65;100.00;97544.13;10302286;28;20390;-76
2023/09/12 03:49:28;;;;;;;12.77;11.52;;;15.90;99.90;;;16.69;100.00;97542.53;10305308;28;20322;-77
2023/09/12 03:54:31;;;;;;;12.90;11.52;;;15.90;99.90;;;16.75;100.00;97545.28;10310137;28;20229;-77
2023/09/12 03:59:36;;;;;;;12.88;11.57;;;16.00;99.90;;;16.78;100.00;97546.25;10323631;28;20259;-79
2023/09/12 04:04:40;;;;;;;12.02;10.75;;;16.00;99.90;;;16.78;99.89;97546.25;10310027;28;20230;-78
2023/09/12 04:09:43;;;;;;;14.27;10.90;;;16.00;99.90;;;16.62;100.00;97552.66;10309748;28;20327;-77
2023/09/12 04:14:50;;;;;;;15.38;11.57;;;16.00;99.90;;;16.66;99.60;97556.22;10301871;28;20226;-76
2023/09/12 04:19:53;;;;;;;13.85;11.15;;;15.90;99.90;;;16.76;99.67;97557.34;10310098;28;20286;-76
2023/09/12 04:24:57;;;;;;;12.38;10.82;;;16.00;99.90;;;16.79;99.01;97563.47;10310658;28;20648;-77
2023/09/12 04:30:01;;;;;;;11.85;10.30;;;16.00;99.90;;;16.67;99.13;97556.25;10312436;28;20234;-77
2023/09/12 04:35:06;;;;;;;10.98;9.55;;;15.90;99.90;;;16.72;98.50;97560.69;10327854;28;20937;-76
2023/09/12 04:40:10;;;;;;;10.85;9.32;;;15.80;99.90;;;16.69;98.20;97560.59;10332047;28;20235;-77
2023/09/12 04:45:15;;;;;;;12.95;10.15;;;15.80;99.90;;;16.65;98.26;97564.78;10323963;28;20314;-76
2023/09/12 04:50:18;;;;;;;11.75;10.55;;;15.80;99.90;;;16.56;98.68;97560.22;10327623;28;20227;-77
2023/09/12 04:55:22;;;;;;;11.45;9.95;;;15.70;99.90;;;16.41;99.78;97555.50;10330797;28;20231;-76
2023/09/12 05:00:26;;;;;;;11.07;10.05;;;15.60;99.90;;;16.52;98.91;97553.25;10337730;28;20227;-77
2023/09/12 05:05:29;;;;;;;11.68;9.50;;;15.70;99.90;;;16.56;99.38;97560.22;10330585;28;20246;-76
2023/09/12 05:10:33;;;;;;;11.73;9.68;;;15.80;99.90;;;16.53;98.85;97554.97;10328603;28;20620;-77
2023/09/12 05:15:39;;;;;;;10.80;9.70;;;15.70;99.90;;;16.50;98.62;97552.31;10331997;28;20249;-77
2023/09/12 05:20:42;;;;;;;12.63;9.73;;;15.70;99.90;;;16.53;98.38;97554.97;10335187;28;20250;-77
2023/09/12 05:25:46;;;;;;;11.35;10.25;;;15.80;99.90;;;16.61;98.31;97550.91;10324134;28;20333;-78
2023/09/12 05:30:50;;;;;;;12.68;10.10;;;15.80;99.90;;;16.76;98.63;97560.81;10330956;28;20803;-77
2023/09/12 05:35:53;;;;;;;12.25;9.77;;;16.00;99.90;;;17.03;97.16;97563.28;10325083;28;20239;-76
2023/09/12 05:40:57;;;;;;;11.30;9.32;;;16.20;99.90;;;17.20;95.85;97555.13;10325886;28;20239;-77
2023/09/12 05:46:03;;;;;;;10.05;9.05;;;16.20;99.90;;;17.68;93.02;97567.50;10323305;28;20330;-77
2023/09/12 05:51:06;;;;;;;12.65;10.02;;;16.60;99.90;;;17.95;91.07;97560.44;10323340;28;20305;-77
2023/09/12 05:56:10;;;;;;;12.23;9.02;;;16.90;99.90;;;18.57;89.34;97566.97;10331123;28;20226;-78
2023/09/12 06:01:14;;;;;;;11.18;9.25;;;17.40;99.90;;;19.03;85.13;97575.69;10329666;28;20740;-77
2023/09/12 06:06:17;;;;;;;11.85;9.32;;;17.80;99.90;;;19.34;83.73;97567.66;10322197;28;20237;-77
2023/09/12 06:11:21;;;;;;;10.38;9.13;;;18.10;99.90;;;19.49;83.87;97577.41;10332668;28;20227;-77
2023/09/12 06:16:26;;;;;;;10.13;8.00;;;18.40;99.90;;;19.78;82.07;97572.75;10335702;28;20254;-78
2023/09/12 06:21:29;;;;;;;12.15;9.30;;;18.60;99.90;;;20.35;79.04;97577.91;10323319;28;20313;-77
2023/09/12 06:26:33;;;;;;;10.27;9.15;;;19.10;99.90;;;21.03;76.14;97569.25;10327352;28;22153;-76
2023/09/12 06:31:37;;;;;;;9.90;8.93;;;19.50;99.90;;;21.97;71.48;97577.09;10326897;28;20703;-78
2023/09/12 06:36:44;;;;;;;12.40;9.30;;;20.40;99.90;;;22.59;69.01;97574.91;10326031;28;20226;-78
2023/09/12 06:41:48;;;;;;;10.77;8.93;;;21.00;99.90;;;22.88;67.45;97573.28;10329678;28;20226;-79
2023/09/12 06:46:52;;;;;;;10.23;8.77;;;21.30;99.90;;;23.04;67.03;97563.81;10331001;28;20715;-78
2023/09/12 06:51:56;;;;;;;13.27;8.98;;;21.50;99.90;;;22.84;66.59;97568.94;10330225;28;20325;-78
2023/09/12 06:56:59;;;;;;;10.02;8.93;;;21.20;99.90;;;22.33;69.52;97575.63;10333346;28;20254;-76
2023/09/12 07:02:04;;;;;;;12.25;9.55;;;20.90;99.90;;;22.61;68.32;97575.81;10329361;28;20234;-78
2023/09/12 07:07:07;;;;;;;10.50;9.45;;;21.00;99.90;;;22.92;66.95;97575.06;10326581;28;20582;-77
2023/09/12 07:12:10;;;;;;;10.82;8.57;;;21.30;99.90;;;22.64;67.95;97570.59;10334081;28;20219;-77
2023/09/12 07:17:16;;;;;;;9.63;8.82;;;21.20;99.90;;;23.23;67.68;97567.34;10328380;28;20230;-77
2023/09/12 07:22:19;;;;;;;10.75;8.68;;;22.00;99.90;;;23.87;63.85;97570.94;10321829;28;20255;-77
2023/09/12 07:27:22;;;;;;;11.77;9.05;;;22.60;99.90;;;23.98;62.73;97575.28;10325053;28;20716;-78
2023/09/12 07:32:28;;;;;;;10.13;8.82;;;22.80;99.90;;;24.01;62.98;97579.63;10332323;28;20222;-77
2023/09/12 07:37:31;;;;;;;11.25;9.00;;;22.80;99.90;;;24.17;62.11;97591.78;10336122;28;20235;-78
2023/09/12 07:42:35;;;;;;;10.10;8.27;;;22.90;99.90;;;24.82;59.31;97589.03;10332279;28;20219;-77
2023/09/12 07:47:39;;;;;;;11.68;9.02;;;23.60;99.90;;;25.51;58.44;97597.44;10323265;28;20657;-78
2023/09/12 07:52:43;;;;;;;11.23;8.85;;;24.50;99.90;;;25.69;58.35;97598.19;10327254;28;20691;-78
2023/09/12 07:57:46;;;;;;;12.25;8.88;;;24.70;99.90;;;25.73;58.56;97611.25;10333058;28;20384;-78
2023/09/12 08:02:50;;;;;;;10.32;8.88;;;24.40;99.90;;;26.02;58.10;97613.66;10330589;28;20715;-78
2023/09/12 08:07:54;;;;;;;9.20;8.27;;;24.90;99.90;;;25.98;57.98;97617.22;10337423;28;20234;-78
2023/09/12 08:12:58;;;;;;;9.98;8.98;;;24.60;99.90;;;26.16;56.51;97615.31;10331166;28;20319;-79
2023/09/12 08:18:03;;;;;;;12.07;9.23;;;25.00;99.90;;;26.48;55.85;97628.09;10332953;28;20621;-77
2023/09/12 08:23:07;;;;;;;9.18;8.13;;;25.40;99.90;;;26.48;56.57;97623.72;10333531;28;20246;-77
2023/09/12 08:28:10;;;;;;;10.18;8.20;;;25.50;99.90;;;26.69;55.57;97611.28;10328261;28;20226;-76
2023/09/12 08:33:15;;;;;;;11.23;7.72;;;25.70;99.90;;;26.86;54.52;97611.97;10323017;28;20281;-77
2023/09/12 08:38:18;;;;;;;9.10;8.20;;;25.80;99.90;;;27.18;53.76;97615.97;10333465;28;20310;-77
2023/09/12 08:43:22;;;;;;;11.05;8.30;;;26.20;99.90;;;27.44;53.47;97612.13;10324836;28;20594;-78
2023/09/12 08:48:29;;;;;;;10.63;8.60;;;26.50;99.90;;;27.89;52.93;97612.38;10328104;28;20238;-78
2023/09/12 08:53:32;;;;;;;14.52;9.27;;;27.10;99.90;;;28.16;52.15;97603.16;10330563;28;20277;-78
2023/09/12 08:58:37;;;;;;;10.50;8.38;;;27.40;99.70;;;28.42;51.59;97602.75;10324852;28;20234;-77
2023/09/12 09:03:43;;;;;;;10.63;8.70;;;27.50;99.10;;;28.48;52.39;97600.84;10328918;28;20246;-78
2023/09/12 09:08:48;;;;;;;9.30;8.38;;;27.60;99.40;;;28.47;52.96;97598.25;10344350;28;20305;-77
2023/09/12 09:13:51;;;;;;;10.30;8.65;;;27.60;99.70;;;28.94;51.42;97593.84;10321440;28;20253;-78
2023/09/12 09:18:58;;;;;;;11.75;9.10;;;28.10;98.60;;;29.13;49.29;97600.47;10330232;28;20255;-78
2023/09/12 09:24:05;;;;;;;10.55;8.80;;;28.50;97.10;;;29.29;48.66;97598.38;10326579;28;20758;-79
2023/09/12 09:29:11;;;;;;;9.85;8.82;;;28.50;96.70;;;29.53;48.28;97591.69;10326841;28;20225;-79
2023/09/12 09:34:18;;;;;;;9.13;8.20;;;28.70;96.30;;;29.74;48.02;97581.59;10329326;28;20262;-78
2023/09/12 09:39:24;;;;;;;9.77;8.90;;;29.00;95.70;;;29.82;47.56;97577.00;10337410;28;20325;-79
2023/09/12 09:44:30;;;;;;;8.75;8.05;;;29.10;95.70;;;30.15;47.65;97574.41;10337087;28;20713;-79
2023/09/12 09:49:35;;;;;;;10.15;8.77;;;29.40;95.50;;;30.26;46.92;97567.13;10326974;28;20703;-79
2023/09/12 09:54:44;;;;;;;9.85;8.85;;;29.60;94.70;;;30.46;46.52;97564.81;10323482;28;20249;-79
2023/09/12 09:59:51;;;;;;;9.43;8.50;;;29.90;94.40;;;30.49;46.92;97559.44;10331200;28;20582;-79
2023/09/12 10:04:57;;;;;;;9.88;9.02;;;29.80;94.80;;;30.74;46.55;97558.75;10320207;28;21037;-79
2023/09/12 10:10:05;;;;;;;9.77;8.88;;;30.10;94.50;;;30.66;47.13;97558.13;10323006;28;20222;-79
2023/09/12 10:15:10;;;;;;;10.25;9.30;;;29.90;94.80;;;30.69;47.25;97537.78;10322905;28;20222;-78
2023/09/12 10:20:21;;;;;;;10.25;9.27;;;30.10;94.90;;;30.71;47.13;97530.69;10320615;28;20280;-78
2023/09/12 10:25:25;;;;;;;9.07;8.23;;;30.10;94.80;;;31.01;46.07;97530.72;10328572;28;20682;-77
2023/09/12 10:30:29;;;;;;;9.88;9.07;;;30.20;94.20;;;30.95;45.65;97534.41;10326443;28;20308;-78
2023/09/12 10:35:36;;;;;;;10.02;9.20;;;30.20;93.60;;;31.20;44.87;97521.31;10322076;28;20249;-78
2023/09/12 10:40:40;;;;;;;9.80;8.95;;;30.60;93.20;;;31.20;44.59;97518.69;10330923;28;20321;-77
2023/09/12 10:45:47;;;;;;;9.38;8.57;;;30.50;92.80;;;31.52;42.80;97513.31;10332334;28;20698;-79
2023/09/12 10:50:51;;;;;;;10.32;9.32;;;30.90;91.50;;;31.34;43.49;97510.31;10328711;28;20218;-78
2023/09/12 10:56:15;;;;;;;10.35;9.35;;;30.70;91.60;;;31.42;42.95;97518.91;10335164;28;20223;-78
2023/09/12 11:01:25;;;;;;;9.70;8.90;;;30.80;91.50;;;31.46;44.38;97516.16;10333954;28;20229;-78
2023/09/12 11:06:32;;;;;;;10.73;9.25;;;30.70;92.20;;;31.56;44.55;97509.66;10339847;28;20226;-78
2023/09/12 11:11:35;;;;;;;9.82;8.88;;;30.80;92.40;;;31.31;44.65;97510.41;10336082;28;20226;-78
2023/09/12 11:16:38;;;;;;;10.48;9.45;;;30.50;92.60;;;31.16;44.70;97516.16;10335290;28;20300;-78
2023/09/12 11:21:45;;;;;;;9.88;9.02;;;30.40;92.70;;;31.13;44.64;97510.97;10333417;28;20804;-78
2023/09/12 11:26:57;;;;;;;9.90;9.10;;;30.40;92.50;;;31.39;43.00;97516.38;10334582;28;20226;-78
2023/09/12 11:32:02;;;;;;;9.27;8.38;;;30.40;91.20;;;31.44;41.95;97517.97;10335891;28;20773;-78
2023/09/12 11:37:07;;;;;;;9.55;8.75;;;30.60;90.60;;;31.55;41.50;97502.66;10336479;28;20278;-77
2023/09/12 11:42:13;;;;;;;9.50;8.70;;;30.80;90.20;;;31.52;40.84;97502.75;10331473;28;20261;-78
2023/09/12 11:47:17;;;;;;;8.68;7.88;;;30.80;88.50;;;31.72;39.10;97500.31;10331997;28;20250;-77
2023/09/12 11:52:21;;;;;;;9.32;8.32;;;31.00;86.10;;;31.78;39.60;97486.88;10336994;28;20257;-78
2023/09/12 11:57:28;;;;;;;9.52;8.63;;;30.90;86.80;;;31.81;39.56;97492.06;10331217;28;20254;-78
2023/09/12 12:02:31;;;;;;;9.10;8.32;;;30.80;87.20;;;31.77;39.34;97485.16;10342957;28;20222;-79
2023/09/12 12:07:36;;;;;;;8.98;8.27;;;30.90;87.00;;;31.85;39.60;97480.47;10339035;28;20695;-78
2023/09/12 12:12:39;;;;;;;9.05;8.25;;;30.90;87.20;;;31.92;39.75;97473.22;10337580;28;20284;-78
2023/09/12 12:17:43;;;;;;;9.27;8.57;;;31.10;87.20;;;31.82;40.15;97477.94;10332989;28;20239;-78
2023/09/12 12:22:47;;;;;;;8.52;7.82;;;30.80;88.00;;;31.72;40.89;97473.88;10344602;28;20233;-79
2023/09/12 12:27:50;;;;;;;9.05;8.25;;;30.90;88.60;;;31.81;40.33;97470.91;10336299;28;20298;-79
2023/09/12 12:32:54;;;;;;;9.55;8.75;;;31.00;87.80;;;31.73;40.08;97462.38;10340845;28;20230;-78
2023/09/12 12:38:03;;;;;;;9.40;8.60;;;30.90;87.60;;;31.67;40.33;97459.94;10341997;28;20261;-79
2023/09/12 12:43:19;;;;;;;8.52;7.82;;;30.80;87.40;;;31.71;39.66;97445.72;10326539;28;20218;-79
2023/09/12 12:48:32;;;;;;;9.82;8.65;;;30.90;86.80;;;31.78;40.97;97447.22;10326084;28;20625;-77
2023/09/12 12:53:40;;;;;;;8.73;7.93;;;30.90;88.20;;;31.73;40.63;97449.16;10333849;28;20218;-78
2023/09/12 12:58:58;;;;;;;8.73;7.95;;;30.90;87.70;;;31.72;40.45;97441.28;10331438;28;20758;-79
2023/09/12 13:04:01;;;;;;;8.75;8.05;;;30.90;87.50;;;31.78;38.69;97423.44;10333058;28;20236;-78
2023/09/12 13:09:08;;;;;;;9.18;8.27;;;30.90;84.60;;;31.64;39.33;97421.25;10321073;28;20234;-78
2023/09/12 13:14:12;;;;;;;8.48;7.93;;;30.80;85.50;;;31.54;39.25;97416.38;10332377;28;20238;-78
2023/09/12 13:19:15;;;;;;;9.18;8.32;;;30.70;84.80;;;31.75;38.59;97418.25;10331138;28;20226;-78
2023/09/12 13:24:20;;;;;;;8.55;7.75;;;30.80;83.50;;;31.79;37.75;97413.72;10331260;28;20233;-78
2023/09/12 13:29:23;;;;;;;8.30;7.53;;;30.90;82.90;;;31.84;36.84;97414.41;10325148;28;20236;-78
2023/09/12 13:34:26;;;;;;;7.72;7.03;;;30.90;80.50;;;31.66;36.88;97401.84;10326517;28;20234;-79
2023/09/12 13:39:31;;;;;;;8.40;7.70;;;30.70;80.80;;;31.70;35.58;97395.53;10324974;28;20726;-78
2023/09/12 13:44:34;;;;;;;7.95;7.25;;;30.80;78.40;;;31.61;36.71;97396.72;10324844;28;20223;-79
2023/09/12 13:49:38;;;;;;;7.47;6.85;;;30.70;80.20;;;31.47;37.24;97393.69;10320556;28;20234;-78
2023/09/12 13:54:42;;;;;;;7.97;7.28;;;30.60;80.60;;;31.64;36.83;97386.91;10325736;28;20223;-77
2023/09/12 13:59:46;;;;;;;7.68;7.00;;;30.70;80.20;;;31.62;36.15;97387.88;10323453;28;20234;-78
2023/09/12 14:04:50;;;;;;;7.82;7.25;;;30.70;79.10;;;31.56;36.70;97377.50;10320588;28;20222;-77
2023/09/12 14:10:07;;;;;;;7.60;7.00;;;30.60;79.10;;;31.59;36.07;97383.56;10327913;28;20257;-79
2023/09/12 14:15:14;;;;;;;7.95;7.20;;;30.70;78.30;;;31.64;35.94;97381.63;10324884;28;20257;-79
2023/09/12 14:20:18;;;;;;;8.45;7.65;;;30.70;78.80;;;31.59;36.16;97377.41;10321805;28;20261;-79
2023/09/12 14:25:23;;;;;;;7.30;6.70;;;30.70;78.90;;;31.60;36.63;97385.28;10325630;28;20776;-79
2023/09/12 14:30:33;;;;;;;8.27;7.57;;;30.70;78.90;;;31.54;36.75;97392.59;10322534;28;20242;-79
2023/09/12 14:35:37;;;;;;;8.70;7.57;;;30.60;79.20;;;31.66;36.43;97394.78;10324398;28;20257;-79
2023/09/12 14:40:41;;;;;;;7.93;7.28;;;30.70;79.50;;;31.52;37.88;97386.47;10323203;28;20250;-79
2023/09/12 14:45:47;;;;;;;8.23;7.43;;;30.60;81.10;;;31.38;36.86;97398.38;10336777;28;20301;-79
2023/09/12 14:50:51;;;;;;;7.40;6.80;;;30.50;79.70;;;31.26;38.23;97395.25;10317493;28;20258;-79
2023/09/12 14:55:56;;;;;;;8.00;7.18;;;30.30;81.80;;;31.09;39.68;97398.44;10318632;28;20273;-78
2023/09/12 15:00:59;;;;;;;7.55;6.95;;;30.10;85.40;;;30.90;40.92;97401.66;10317196;28;20352;-80
2023/09/12 15:06:06;;;;;;;7.82;7.13;;;29.80;87.50;;;30.76;41.32;97406.47;10305062;28;20242;-80
2023/09/12 15:11:11;;;;;;;8.52;7.72;;;29.70;86.80;;;30.64;42.29;97401.59;10311906;28;20297;-78
2023/09/12 15:16:15;;;;;;;9.40;7.55;;;29.60;88.70;;;30.46;43.12;97403.88;10317272;28;20265;-80
2023/09/12 15:21:18;;;;;;;8.57;7.82;;;29.40;90.20;;;30.42;44.24;97398.72;10314802;28;20261;-79
2023/09/12 15:26:22;;;;;;;9.25;8.05;;;29.30;91.10;;;30.35;46.34;97405.09;10317553;28;20323;-82
2023/09/12 15:31:26;;;;;;;8.50;7.80;;;29.20;92.40;;;30.12;47.64;97395.19;10327701;28;21872;-80
2023/09/12 15:36:29;;;;;;;8.80;8.00;;;29.00;93.50;;;29.75;48.93;97402.34;10308393;28;20227;-80
2023/09/12 15:41:34;;;;;;;9.00;8.10;;;28.60;94.20;;;29.64;49.10;97396.50;10317634;28;20253;-80
2023/09/12 15:46:38;;;;;;;9.00;8.10;;;28.60;94.50;;;29.62;50.20;97393.91;10318628;28;20288;-80
2023/09/12 15:51:41;;;;;;;9.13;8.43;;;28.40;96.00;;;29.47;51.48;97391.63;10310547;28;20346;-80
2023/09/12 15:56:46;;;;;;;9.15;8.30;;;28.10;96.90;;;29.22;52.56;97401.06;10320702;28;20237;-80
2023/09/12 16:01:50;;;;;;;9.30;8.40;;;28.00;97.60;;;29.09;55.00;97390.84;10317876;28;20247;-79
2023/09/12 16:06:53;;;;;;;10.43;8.50;;;27.90;99.30;;;28.92;56.66;97385.09;10330934;28;20329;-80
2023/09/12 16:11:58;;;;;;;9.07;8.23;;;27.70;99.90;;;28.69;57.29;97378.59;10335158;28;20230;-79
2023/09/12 16:17:02;;;;;;;9.05;8.25;;;27.50;99.90;;;28.28;58.58;97376.84;10309473;28;20610;-79
2023/09/12 16:22:06;;;;;;;9.82;8.93;;;27.20;99.90;;;27.94;58.38;97360.91;10301029;28;20248;-79
2023/09/12 16:27:11;;;;;;;9.55;8.73;;;27.00;99.90;;;27.90;58.79;97352.25;10305784;28;20621;-80
2023/09/12 16:32:15;;;;;;;8.90;8.07;;;26.90;99.90;;;27.84;58.94;97344.47;10322925;28;20274;-80
2023/09/12 16:37:18;;;;;;;9.82;8.90;;;26.80;99.90;;;27.77;61.06;97343.69;10328738;28;20237;-80
2023/09/12 16:42:23;;;;;;;9.73;8.88;;;26.60;99.90;;;27.58;62.06;97342.31;10304151;28;20280;-80
2023/09/12 16:47:27;;;;;;;9.75;8.88;;;26.50;99.90;;;27.57;62.96;97351.09;10315787;28;20234;-80
2023/09/12 16:52:31;;;;;;;9.85;9.02;;;26.40;99.90;;;27.42;64.12;97356.66;10302725;28;20551;-79
2023/09/12 16:57:36;;;;;;;9.88;8.88;;;26.30;99.90;;;27.28;64.20;97370.88;10295276;28;20330;-79
2023/09/12 17:02:39;;;;;;;9.85;8.90;;;26.20;99.90;;;27.23;64.29;97377.94;10304816;28;20235;-79
2023/09/12 17:07:43;;;;;;;9.80;9.00;;;26.20;99.90;;;27.25;65.23;97397.16;10305561;28;20238;-79
2023/09/12 17:12:48;;;;;;;10.30;9.50;;;26.20;99.90;;;27.21;67.31;97415.59;10291736;28;20290;-79
2023/09/12 17:17:51;;;;;;;10.82;9.90;;;26.10;99.90;;;27.01;68.62;97423.75;10300780;28;20338;-79
2023/09/12 17:22:55;;;;;;;10.20;9.20;;;25.90;99.90;;;27.07;67.98;97428.91;10314226;28;20297;-80
2023/09/12 17:27:59;;;;;;;10.90;9.88;;;26.00;99.90;;;27.26;61.92;97419.88;10312715;28;20230;-79
2023/09/12 17:33:03;;;;;;;11.38;10.38;;;26.10;99.90;;;27.24;60.76;97429.53;10308784;28;20711;-77
2023/09/12 17:38:06;;;;;;;11.15;10.25;;;26.30;99.90;;;27.28;59.27;97440.88;10310371;28;20223;-78
2023/09/12 17:43:11;;;;;;;10.82;9.93;;;26.30;99.90;;;27.42;56.91;97445.91;10310662;28;20281;-79
2023/09/12 17:48:15;;;;;;;10.13;9.25;;;26.60;99.90;;;27.33;57.43;97442.53;10305415;28;20230;-79
2023/09/12 17:53:18;;;;;;;10.90;9.88;;;26.50;99.90;;;27.03;58.79;97448.22;10301133;28;20226;-80
2023/09/12 17:58:23;;;;;;;10.63;9.65;;;26.20;99.90;;;26.71;60.25;97441.69;10300032;28;20280;-79
2023/09/12 18:03:27;;;;;;;10.32;9.52;;;25.80;99.90;;;26.52;60.74;97451.53;10310688;28;20230;-78
2023/09/12 18:08:34;;;;;;;11.18;10.15;;;25.60;99.90;;;26.25;61.94;97458.84;10295388;28;20250;-80
2023/09/12 18:13:40;;;;;;;10.60;9.70;;;25.30;99.90;;;26.02;63.75;97471.34;10297525;28;22242;-79
2023/09/12 18:18:44;;;;;;;10.85;9.93;;;25.10;99.90;;;25.82;64.72;97463.66;10288518;28;20245;-79
2023/09/12 18:23:47;;;;;;;10.90;9.90;;;24.90;99.90;;;25.59;66.01;97469.09;10300291;28;20230;-78
2023/09/12 18:28:52;;;;;;;10.70;9.90;;;24.70;99.90;;;25.61;67.58;97478.69;10302796;28;20762;-76
2023/09/12 18:33:56;;;;;;;11.15;10.32;;;24.60;99.90;;;25.32;68.42;97483.28;10295998;28;20276;-79
2023/09/12 18:38:59;;;;;;;11.10;10.10;;;24.40;99.90;;;25.22;70.31;97484.25;10295130;28;20231;-78
2023/09/12 18:44:05;;;;;;;10.63;9.63;;;24.20;99.90;;;25.08;71.13;97505.22;10298736;28;20230;-82
2023/09/12 18:49:09;;;;;;;11.25;10.15;;;24.10;99.90;;;24.96;72.83;97490.47;10293812;28;20234;-79
2023/09/12 18:54:19;;;;;;;11.68;10.50;;;23.90;99.90;;;24.66;73.74;97487.13;10303051;28;20599;-78
2023/09/12 18:59:24;;;;;;;11.43;10.45;;;23.70;99.90;;;24.48;74.59;97492.47;10294874;28;20237;-78
2023/09/12 19:04:29;;;;;;;10.98;10.07;;;23.50;99.90;;;24.36;75.14;97495.09;10292799;28;20313;-77
2023/09/12 19:09:33;;;;;;;12.23;11.07;;;23.40;99.90;;;24.17;76.67;97497.75;10293501;28;20232;-78
2023/09/12 19:14:38;;;;;;;11.50;10.50;;;23.20;99.90;;;24.10;77.77;97503.88;10288823;28;20227;-79
2023/09/12 19:19:41;;;;;;;12.52;11.43;;;23.00;99.90;;;23.71;78.22;97500.44;10300431;28;20285;-78
2023/09/12 19:24:44;;;;;;;11.15;10.25;;;22.80;99.90;;;23.64;77.98;97506.53;10293232;28;20255;-79
2023/09/12 19:29:51;;;;;;;11.32;10.43;;;22.70;99.90;;;23.63;79.76;97502.16;10297572;28;20224;-79
2023/09/12 19:34:55;;;;;;;11.55;10.45;;;22.60;99.90;;;23.55;81.40;97514.31;10301225;28;20223;-78
2023/09/12 19:39:58;;;;;;;11.85;10.95;;;22.40;99.90;;;23.21;82.15;97516.94;10313336;28;20747;-83
2023/09/12 19:45:04;;;;;;;12.18;11.18;;;22.20;99.90;;;23.09;82.66;97514.28;10306755;28;20996;-79
2023/09/12 19:50:09;;;;;;;13.00;11.90;;;22.10;99.90;;;23.04;82.52;97519.50;10317280;28;20273;-78
2023/09/12 19:55:12;;;;;;;11.98;10.88;;;22.10;99.90;;;22.93;82.39;97523.78;10317792;28;20680;-80
2023/09/12 20:00:18;;;;;;;13.02;11.73;;;22.00;99.90;;;22.85;83.68;97521.16;10314304;28;20321;-77
2023/09/12 20:05:22;;;;;;;11.25;10.35;;;21.80;99.90;;;22.66;81.54;97528.06;10317282;28;20896;-76
2023/09/12 20:10:25;;;;;;;11.02;10.23;;;21.70;99.90;;;22.65;80.54;97522.81;10311173;28;20266;-76
2023/09/12 20:15:33;;;;;;;11.75;10.75;;;21.70;99.90;;;22.69;81.36;97521.97;10334498;28;20230;-76
2023/09/12 20:20:38;;;;;;;11.50;10.40;;;21.70;99.90;;;22.63;81.53;97519.34;10314915;28;20227;-78
2023/09/12 20:25:42;;;;;;;12.20;11.10;;;21.70;99.90;;;22.61;82.63;97515.88;10328239;28;20260;-76
2023/09/12 20:30:47;;;;;;;12.20;11.05;;;21.70;99.90;;;22.58;83.28;97528.88;10311626;28;20912;-77
2023/09/12 20:35:50;;;;;;;12.00;11.00;;;21.60;99.90;;;22.59;82.59;97534.09;10323811;28;20681;-76
2023/09/12 20:40:53;;;;;;;11.60;10.57;;;21.60;99.90;;;22.49;83.02;97542.72;10321028;28;20255;-77
2023/09/12 20:45:58;;;;;;;11.55;10.65;;;21.60;99.90;;;22.44;83.60;97553.13;10322345;28;20588;-77
2023/09/12 20:51:01;;;;;;;11.95;10.88;;;21.60;99.90;;;22.51;83.69;97569.66;10323716;28;20226;-77